sensor_id;sensor_type;location;lat;lon;timestamp;pressure;altitude;pressure_sealevel;temperature;humidity
5679;BME280;2862;52.560;13.566;2023-03-25T00:00:36;99426.22;;;9.73;87.81
5679;BME280;2862;52.560;13.566;2023-03-25T00:10:40;99431.31;;;9.41;89.44
5679;BME280;2862;52.560;13.566;2023-03-25T00:20:44;99437.34;;;9.15;92.01
5679;BME280;2862;52.560;13.566;2023-03-25T00:30:50;99427.38;;;9.17;93.16
5679;BME280;2862;52.560;13.566;2023-03-25T00:40:55;99420.81;;;9.12;94.05
5679;BME280;2862;52.560;13.566;2023-03-25T00:50:58;99431.25;;;9.05;94.61
5679;BME280;2862;52.560;13.566;2023-03-25T01:01:10;99438.31;;;8.96;96.14
5679;BME280;2862;52.560;13.566;2023-03-25T01:11:18;99437.53;;;8.86;97.07
5679;BME280;2862;52.560;13.566;2023-03-25T01:21:25;99426.78;;;8.78;97.63
5679;BME280;2862;52.560;13.566;2023-03-25T01:31:35;99419.63;;;8.78;97.73
5679;BME280;2862;52.560;13.566;2023-03-25T01:41:39;99410.41;;;8.73;97.87
5679;BME280;2862;52.560;13.566;2023-03-25T01:51:55;99392.81;;;8.80;96.95
5679;BME280;2862;52.560;13.566;2023-03-25T02:02:02;99393.41;;;8.74;96.77
5679;BME280;2862;52.560;13.566;2023-03-25T02:12:07;99387.69;;;8.69;97.55
5679;BME280;2862;52.560;13.566;2023-03-25T02:22:43;99366.81;;;8.64;98.00
5679;BME280;2862;52.560;13.566;2023-03-25T02:43:23;99345.63;;;8.90;97.64
5679;BME280;2862;52.560;13.566;2023-03-25T02:53:31;99342.19;;;8.98;97.59
5679;BME280;2862;52.560;13.566;2023-03-25T03:03:36;99322.41;;;9.18;95.89
5679;BME280;2862;52.560;13.566;2023-03-25T03:13:56;99328.84;;;9.16;95.95
5679;BME280;2862;52.560;13.566;2023-03-25T03:24:10;99320.78;;;9.08;96.83
5679;BME280;2862;52.560;13.566;2023-03-25T03:34:19;99330.84;;;9.14;96.53
5679;BME280;2862;52.560;13.566;2023-03-25T03:44:28;99341.41;;;9.05;100.00
5679;BME280;2862;52.560;13.566;2023-03-25T03:54:37;99335.56;;;9.02;100.00
5679;BME280;2862;52.560;13.566;2023-03-25T04:04:45;99349.63;;;8.94;100.00
5679;BME280;2862;52.560;13.566;2023-03-25T04:14:48;99335.56;;;8.84;100.00
5679;BME280;2862;52.560;13.566;2023-03-25T04:24:53;99335.25;;;8.87;100.00
5679;BME280;2862;52.560;13.566;2023-03-25T04:34:56;99337.75;;;8.89;100.00
5679;BME280;2862;52.560;13.566;2023-03-25T04:45:03;99332.81;;;8.94;100.00
5679;BME280;2862;52.560;13.566;2023-03-25T04:55:07;99345.63;;;8.90;100.00
5679;BME280;2862;52.560;13.566;2023-03-25T05:05:12;99327.34;;;8.95;100.00
5679;BME280;2862;52.560;13.566;2023-03-25T05:15:19;99330.75;;;9.05;100.00
5679;BME280;2862;52.560;13.566;2023-03-25T05:25:23;99333.34;;;9.15;100.00
5679;BME280;2862;52.560;13.566;2023-03-25T05:35:26;99330.38;;;9.36;100.00
5679;BME280;2862;52.560;13.566;2023-03-25T05:45:30;99319.75;;;15.06;71.36
5679;BME280;2862;52.560;13.566;2023-03-25T05:55:34;99332.97;;;18.43;56.26
5679;BME280;2862;52.560;13.566;2023-03-25T06:05:39;99335.34;;;15.11;65.45
5679;BME280;2862;52.560;13.566;2023-03-25T06:15:42;99346.28;;;11.41;84.35
5679;BME280;2862;52.560;13.566;2023-03-25T06:25:46;99344.94;;;10.46;89.47
5679;BME280;2862;52.560;13.566;2023-03-25T06:35:49;99362.06;;;10.09;89.03
5679;BME280;2862;52.560;13.566;2023-03-25T06:45:55;99354.25;;;10.33;86.48
5679;BME280;2862;52.560;13.566;2023-03-25T06:56:17;99360.50;;;10.50;86.01
5679;BME280;2862;52.560;13.566;2023-03-25T07:06:22;99350.75;;;10.92;85.79
5679;BME280;2862;52.560;13.566;2023-03-25T07:16:26;99362.47;;;12.29;78.63
5679;BME280;2862;52.560;13.566;2023-03-25T07:26:30;99359.22;;;15.78;62.62
5679;BME280;2862;52.560;13.566;2023-03-25T07:36:32;99365.56;;;15.99;59.36
5679;BME280;2862;52.560;13.566;2023-03-25T07:46:37;99363.97;;;16.04;58.39
5679;BME280;2862;52.560;13.566;2023-03-25T07:56:39;99367.09;;;15.80;59.39
5679;BME280;2862;52.560;13.566;2023-03-25T08:06:43;99386.34;;;14.24;60.34
5679;BME280;2862;52.560;13.566;2023-03-25T08:16:46;99369.34;;;13.94;61.57
5679;BME280;2862;52.560;13.566;2023-03-25T08:26:51;99364.16;;;12.69;65.45
5679;BME280;2862;52.560;13.566;2023-03-25T08:36:54;99389.38;;;12.44;65.36
5679;BME280;2862;52.560;13.566;2023-03-25T08:46:58;99375.81;;;12.37;65.79
5679;BME280;2862;52.560;13.566;2023-03-25T08:57:01;99363.31;;;13.00;63.90
5679;BME280;2862;52.560;13.566;2023-03-25T09:07:06;99363.81;;;13.03;61.42
5679;BME280;2862;52.560;13.566;2023-03-25T09:17:12;99365.94;;;12.85;62.32
5679;BME280;2862;52.560;13.566;2023-03-25T09:27:17;99366.56;;;12.56;64.76
5679;BME280;2862;52.560;13.566;2023-03-25T09:37:20;99370.22;;;13.71;59.57
5679;BME280;2862;52.560;13.566;2023-03-25T09:47:25;99381.97;;;12.62;61.13
5679;BME280;2862;52.560;13.566;2023-03-25T09:57:41;99398.94;;;12.38;66.36
5679;BME280;2862;52.560;13.566;2023-03-25T10:07:59;99385.75;;;12.20;63.08
5679;BME280;2862;52.560;13.566;2023-03-25T10:18:24;99372.28;;;12.84;59.26
5679;BME280;2862;52.560;13.566;2023-03-25T10:28:35;99372.13;;;12.46;59.89
5679;BME280;2862;52.560;13.566;2023-03-25T10:38:40;99365.25;;;12.44;59.81
5679;BME280;2862;52.560;13.566;2023-03-25T10:48:46;99365.22;;;13.22;57.90
5679;BME280;2862;52.560;13.566;2023-03-25T10:58:53;99358.78;;;13.54;55.63
5679;BME280;2862;52.560;13.566;2023-03-25T11:09:16;99344.44;;;14.74;52.14
5679;BME280;2862;52.560;13.566;2023-03-25T11:19:24;99345.16;;;14.68;51.83
5679;BME280;2862;52.560;13.566;2023-03-25T11:29:30;99325.44;;;14.46;51.91
5679;BME280;2862;52.560;13.566;2023-03-25T11:39:36;99335.13;;;13.88;53.13
5679;BME280;2862;52.560;13.566;2023-03-25T11:49:49;99375.56;;;13.02;58.85
5679;BME280;2862;52.560;13.566;2023-03-25T12:00:15;99336.50;;;13.69;59.30
5679;BME280;2862;52.560;13.566;2023-03-25T12:10:38;99317.38;;;13.26;64.54
5679;BME280;2862;52.560;13.566;2023-03-25T12:21:00;99297.59;;;13.19;63.78
5679;BME280;2862;52.560;13.566;2023-03-25T12:31:29;99280.81;;;13.63;57.49
5679;BME280;2862;52.560;13.566;2023-03-25T12:41:50;99283.84;;;13.45;57.15
5679;BME280;2862;52.560;13.566;2023-03-25T12:52:06;99264.41;;;13.58;54.51
5679;BME280;2862;52.560;13.566;2023-03-25T13:02:47;99259.88;;;13.88;54.25
5679;BME280;2862;52.560;13.566;2023-03-25T13:13:00;99251.00;;;14.02;52.38
5679;BME280;2862;52.560;13.566;2023-03-25T13:23:12;99268.59;;;13.22;56.42
5679;BME280;2862;52.560;13.566;2023-03-25T13:33:26;99304.47;;;11.89;73.87
5679;BME280;2862;52.560;13.566;2023-03-25T13:43:36;99294.47;;;11.09;80.23
5679;BME280;2862;52.560;13.566;2023-03-25T13:53:51;99310.22;;;10.54;80.56
5679;BME280;2862;52.560;13.566;2023-03-25T14:04:36;99300.81;;;10.42;83.39
5679;BME280;2862;52.560;13.566;2023-03-25T14:15:03;99288.25;;;10.93;78.81
5679;BME280;2862;52.560;13.566;2023-03-25T14:25:18;99282.25;;;11.15;79.15
5679;BME280;2862;52.560;13.566;2023-03-25T14:35:49;99278.41;;;11.42;77.86
5679;BME280;2862;52.560;13.566;2023-03-25T14:46:12;99273.16;;;11.81;72.52
5679;BME280;2862;52.560;13.566;2023-03-25T14:56:24;99255.97;;;12.23;69.74
5679;BME280;2862;52.560;13.566;2023-03-25T15:06:35;99254.91;;;12.32;69.55
5679;BME280;2862;52.560;13.566;2023-03-25T15:27:13;99256.16;;;12.13;71.40
5679;BME280;2862;52.560;13.566;2023-03-25T15:37:42;99242.81;;;12.05;71.96
5679;BME280;2862;52.560;13.566;2023-03-25T15:48:05;99241.81;;;11.98;72.33
5679;BME280;2862;52.560;13.566;2023-03-25T15:58:12;99240.97;;;11.98;71.70
5679;BME280;2862;52.560;13.566;2023-03-25T16:08:26;99238.53;;;11.63;72.71
5679;BME280;2862;52.560;13.566;2023-03-25T16:18:30;99246.63;;;11.39;72.31
5679;BME280;2862;52.560;13.566;2023-03-25T16:28:39;99276.56;;;11.26;75.18
5679;BME280;2862;52.560;13.566;2023-03-25T16:38:43;99281.38;;;10.74;80.78
5679;BME280;2862;52.560;13.566;2023-03-25T16:48:50;99280.31;;;10.50;86.67
5679;BME280;2862;52.560;13.566;2023-03-25T16:58:57;99289.59;;;10.30;87.79
5679;BME280;2862;52.560;13.566;2023-03-25T17:09:02;99293.22;;;10.21;89.13
5679;BME280;2862;52.560;13.566;2023-03-25T17:19:15;99295.28;;;10.27;89.55
5679;BME280;2862;52.560;13.566;2023-03-25T17:29:48;99302.13;;;10.29;89.78
5679;BME280;2862;52.560;13.566;2023-03-25T17:40:20;99322.19;;;10.42;91.10
5679;BME280;2862;52.560;13.566;2023-03-25T17:50:34;99335.09;;;10.20;92.29
5679;BME280;2862;52.560;13.566;2023-03-25T18:00:56;99329.06;;;10.18;94.78
5679;BME280;2862;52.560;13.566;2023-03-25T18:11:01;99320.91;;;10.20;95.49
5679;BME280;2862;52.560;13.566;2023-03-25T18:21:10;99319.69;;;10.14;93.70
5679;BME280;2862;52.560;13.566;2023-03-25T18:31:25;99316.72;;;10.17;93.65
5679;BME280;2862;52.560;13.566;2023-03-25T18:41:29;99314.69;;;10.11;92.86
5679;BME280;2862;52.560;13.566;2023-03-25T18:51:33;99304.84;;;10.11;92.03
5679;BME280;2862;52.560;13.566;2023-03-25T19:01:38;99310.84;;;10.14;90.89
5679;BME280;2862;52.560;13.566;2023-03-25T19:11:42;99311.66;;;10.06;88.23
5679;BME280;2862;52.560;13.566;2023-03-25T19:21:45;99310.50;;;10.08;86.50
5679;BME280;2862;52.560;13.566;2023-03-25T19:31:50;99335.84;;;10.30;89.74
5679;BME280;2862;52.560;13.566;2023-03-25T19:41:52;99334.19;;;9.77;91.28
5679;BME280;2862;52.560;13.566;2023-03-25T19:51:56;99300.84;;;9.55;86.02
5679;BME280;2862;52.560;13.566;2023-03-25T20:01:59;99267.69;;;9.40;83.52
5679;BME280;2862;52.560;13.566;2023-03-25T20:12:03;99284.63;;;9.49;82.42
5679;BME280;2862;52.560;13.566;2023-03-25T20:22:06;99280.16;;;9.31;84.91
5679;BME280;2862;52.560;13.566;2023-03-25T20:32:14;99282.00;;;9.31;85.97
5679;BME280;2862;52.560;13.566;2023-03-25T20:42:17;99287.41;;;9.21;88.24
5679;BME280;2862;52.560;13.566;2023-03-25T20:52:22;99281.69;;;9.16;88.37
5679;BME280;2862;52.560;13.566;2023-03-25T21:02:25;99272.84;;;9.16;88.70
5679;BME280;2862;52.560;13.566;2023-03-25T21:12:30;99274.72;;;8.97;91.15
5679;BME280;2862;52.560;13.566;2023-03-25T21:22:39;99277.44;;;8.88;93.26
5679;BME280;2862;52.560;13.566;2023-03-25T21:32:45;99291.69;;;8.61;98.17
5679;BME280;2862;52.560;13.566;2023-03-25T21:42:49;99271.19;;;8.43;100.00
5679;BME280;2862;52.560;13.566;2023-03-25T21:52:53;99270.97;;;8.27;100.00
5679;BME280;2862;52.560;13.566;2023-03-25T22:02:55;99277.97;;;8.28;100.00
5679;BME280;2862;52.560;13.566;2023-03-25T22:13:01;99266.72;;;8.34;100.00
5679;BME280;2862;52.560;13.566;2023-03-25T22:23:04;99274.44;;;8.37;100.00
5679;BME280;2862;52.560;13.566;2023-03-25T22:33:08;99266.03;;;8.32;100.00
5679;BME280;2862;52.560;13.566;2023-03-25T22:43:11;99271.66;;;8.29;100.00
5679;BME280;2862;52.560;13.566;2023-03-25T22:53:15;99272.16;;;8.42;100.00
5679;BME280;2862;52.560;13.566;2023-03-25T23:03:19;99274.53;;;8.45;100.00
5679;BME280;2862;52.560;13.566;2023-03-25T23:13:24;99267.59;;;8.52;98.81
5679;BME280;2862;52.560;13.566;2023-03-25T23:23:28;99269.38;;;8.62;97.32
5679;BME280;2862;52.560;13.566;2023-03-25T23:33:33;99270.50;;;8.59;96.06
5679;BME280;2862;52.560;13.566;2023-03-25T23:43:38;99276.44;;;8.71;95.21
5679;BME280;2862;52.560;13.566;2023-03-25T23:53:45;99291.41;;;8.54;96.56
